Time;durP1;ratioP1;P1;durP2;ratioP2;P2;SDS_P1;SDS_P2;PMS_P1;PMS_P2;Temp;Humidity;BMP_temperature;BMP_pressure;BME280_temperature;BME280_humidity;BME280_pressure;Samples;Min_cycle;Max_cycle;Signal;HPM_P1;HPM_P2
2023/08/11 00:00:03;;;;;;;;;;;;;;;;;;;;;
2023/08/11 00:06:05;;;;;;;15.00;10.65;;;15.50;99.90;;;;;;6249596;22;20378;-84
2023/08/11 00:09:31;;;;;;;;;;;;;;;;;;;;;
2023/08/11 00:13:07;;;;;;;18.00;11.35;;;15.30;99.90;;;;;;6140171;23;20019;-83
2023/08/11 00:16:34;;;;;;;;;;;;;;;;;;;;;
2023/08/11 00:19:45;;;;;;;18.30;11.60;;;15.00;99.90;;;;;;6101941;22;20504;-84
2023/08/11 00:22:45;;;;;;;;;;;;;;;;;;;;;
2023/08/11 00:25:28;;;;;;;17.67;12.15;;;14.70;99.90;;;;;;6165623;22;20094;-84
2023/08/11 00:28:14;;;;;;;17.60;11.98;;;14.50;99.90;;;;;;6280623;22;20015;-84
2023/08/11 00:30:59;;;;;;;;;;;;;;;;;;;;;
2023/08/11 00:38:13;;;;;;;18.10;11.95;;;14.80;99.90;;;;;;6143513;23;20095;-84
2023/08/11 00:41:30;;;;;;;;;;;;;;;;;;;;;
2023/08/11 00:44:46;;;;;;;;;;;;;;;;;;;;;
2023/08/11 01:20:26;;;;;;;;;;;;;;;;;;;;;
2023/08/11 01:27:27;;;;;;;;;;;;;;;;;;;;;
2023/08/11 01:30:36;;;;;;;16.60;11.13;;;14.20;99.90;;;;;;6153650;23;20021;-84
2023/08/11 01:40:04;;;;;;;;;;;;;;;;;;;;;
2023/08/11 01:46:07;;;;;;;17.30;11.80;;;14.20;99.90;;;;;;6032127;23;20530;-84
2023/08/11 01:49:23;;;;;;;18.00;11.45;;;14.10;99.90;;;;;;6034823;23;20030;-84
2023/08/11 01:57:04;;;;;;;;;;;;;;;;;;;;;
2023/08/11 02:00:18;;;;;;;17.60;12.65;;;14.20;99.90;;;;;;6172470;23;20076;-84
2023/08/11 02:03:45;;;;;;;18.55;11.98;;;14.10;99.90;;;;;;6214994;23;20012;-83
2023/08/11 02:09:56;;;;;;;;;;;;;;;;;;;;;
2023/08/11 02:17:42;;;;;;;;;;;;;;;;;;;;;
2023/08/11 02:20:54;;;;;;;21.92;13.38;;;14.10;99.90;;;;;;6015561;23;20224;-83
2023/08/11 02:24:32;;;;;;;;;;;;;;;;;;;;;
2023/08/11 02:41:42;;;;;;;;;;;;;;;;;;;;;
2023/08/11 02:45:08;;;;;;;;;;;;;;;;;;;;;
2023/08/11 02:48:56;;;;;;;20.33;13.20;;;14.00;99.90;;;;;;6303778;22;20030;-84
2023/08/11 02:58:38;;;;;;;;;;;;;;;;;;;;;
2023/08/11 03:02:18;;;;;;;20.98;12.52;;;14.10;99.90;;;;;;6107645;23;20017;-84
2023/08/11 03:12:25;;;;;;;;;;;;;;;;;;;;;
2023/08/11 03:15:43;;;;;;;;;;;;;;;;;;;;;
2023/08/11 03:25:36;;;;;;;17.85;12.10;;;14.10;99.90;;;;;;6273137;22;20023;-86
2023/08/11 03:28:48;;;;;;;18.95;12.38;;;14.10;99.90;;;;;;6184707;23;20461;-86
2023/08/11 03:31:38;;;;;;;17.88;11.88;;;13.80;99.90;;;;;;6099454;23;20073;-85
2023/08/11 03:38:13;;;;;;;;;;;;;;;;;;;;;
2023/08/11 03:48:43;;;;;;;;;;;;;;;;;;;;;
2023/08/11 03:51:57;;;;;;;16.90;10.20;;;14.30;99.90;;;;;;6188043;23;20023;-85
2023/08/11 03:58:18;;;;;;;;;;;;;;;;;;;;;
2023/08/11 04:10:00;;;;;;;;;;;;;;;;;;;;;
2023/08/11 04:20:37;;;;;;;;;;;;;;;;;;;;;
2023/08/11 04:27:40;;;;;;;;;;;;;;;;;;;;;
2023/08/11 04:30:34;;;;;;;;;;;;;;;;;;;;;
2023/08/11 04:43:48;;;;;;;18.30;10.07;;;14.00;99.90;;;;;;6156159;23;20061;-84
2023/08/11 04:46:38;;;;;;;16.92;9.75;;;13.70;99.90;;;;;;6182764;23;20485;-83
2023/08/11 04:49:48;;;;;;;15.75;10.18;;;14.00;99.90;;;;;;6184091;23;20048;-86
2023/08/11 04:55:48;;;;;;;18.23;9.18;;;14.10;99.90;;;;;;6065964;23;20459;-84
2023/08/11 05:05:09;;;;;;;;;;;;;;;;;;;;;
2023/08/11 05:08:54;;;;;;;;;;;;;;;;;;;;;
2023/08/11 05:11:52;;;;;;;14.60;9.23;;;14.30;99.90;;;;;;6055949;23;20049;-84
2023/08/11 05:21:18;;;;;;;15.48;9.27;;;14.80;99.90;;;;;;6265107;22;20015;-85
2023/08/11 05:24:16;;;;;;;;;;;;;;;;;;;;;
2023/08/11 05:27:54;;;;;;;;;;;;;;;;;;;;;
2023/08/11 05:31:11;;;;;;;;;;;;;;;;;;;;;
2023/08/11 05:37:07;;;;;;;14.55;8.13;;;15.60;99.90;;;;;;6307148;22;20019;-85
2023/08/11 05:43:46;;;;;;;15.30;8.30;;;15.10;99.90;;;;;;6214876;23;20048;-85
2023/08/11 05:46:29;;;;;;;;;;;15.20;99.90;;;;;;6132664;23;20050;-85
2023/08/11 05:49:50;;;;;;;;;;;;;;;;;;;;;
2023/08/11 05:52:38;;;;;;;15.52;7.90;;;15.00;99.90;;;;;;6181655;23;20433;-85
2023/08/11 05:55:22;;;;;;;16.48;7.63;;;15.40;99.90;;;;;;6188192;23;20475;-85
2023/08/11 05:58:03;;;;;;;;;;;;;;;;;;;;;
2023/08/11 06:00:51;;;;;;;14.27;7.32;;;15.60;99.90;;;;;;6213662;23;20020;-85
2023/08/11 06:03:32;;;;;;;13.45;7.28;;;15.70;99.90;;;;;;6188348;23;20013;-85
2023/08/11 06:09:23;;;;;;;14.18;7.45;;;15.90;99.90;;;;;;6285800;22;20016;-85
2023/08/11 06:12:14;;;;;;;12.63;7.60;;;15.80;99.90;;;;;;6275325;22;20122;-85
2023/08/11 06:14:55;;;;;;;;;;;;;;;;;;;;;
2023/08/11 06:17:43;;;;;;;15.02;7.68;;;15.70;99.90;;;;;;6226200;22;20077;-84
2023/08/11 06:22:42;;;;;;;12.97;7.10;;;16.40;99.90;;;;;;6301408;22;20023;-85
2023/08/11 06:25:23;;;;;;;12.40;6.85;;;16.50;99.90;;;;;;6279652;22;20253;-85
2023/08/11 06:27:50;;;;;;;12.88;6.93;;;16.50;99.90;;;;;;6278521;22;20019;-84
2023/08/11 06:30:16;;;;;;;12.95;6.13;;;16.60;99.90;;;;;;6278179;22;20047;-83
2023/08/11 06:32:57;;;;;;;13.10;6.32;;;16.80;99.90;;;;;;6306004;22;20304;-83
2023/08/11 06:35:38;;;;;;;13.10;6.55;;;16.80;99.90;;;;;;6303850;22;20017;-83
2023/08/11 06:38:20;;;;;;;12.15;5.85;;;16.90;99.90;;;;;;6279238;22;20019;-81
2023/08/11 06:40:47;;;;;;;13.77;6.20;;;17.00;99.90;;;;;;6279032;22;20015;-83
2023/08/11 06:43:38;;;;;;;12.68;5.75;;;17.10;99.90;;;;;;6306111;22;20029;-81
2023/08/11 06:46:19;;;;;;;12.77;5.85;;;17.20;99.90;;;;;;6306180;22;20101;-82
2023/08/11 06:49:07;;;;;;;10.88;5.03;;;17.30;99.90;;;;;;6279211;22;20019;-82
2023/08/11 06:51:47;;;;;;;12.88;5.70;;;17.50;99.90;;;;;;6278096;22;20371;-82
2023/08/11 06:54:13;;;;;;;10.05;5.28;;;17.60;99.90;;;;;;6306787;22;20019;-82
2023/08/11 06:56:38;;;;;;;11.25;5.78;;;17.70;99.90;;;;;;6277525;22;20019;-83
2023/08/11 06:59:13;;;;;;;11.63;5.57;;;17.90;99.90;;;;;;6308113;22;20043;-81
2023/08/11 07:01:42;;;;;;;11.30;5.10;;;17.90;99.90;;;;;;6305755;22;20375;-81
2023/08/11 07:04:17;;;;;;;13.50;5.93;;;18.00;99.90;;;;;;6305586;22;20019;-82
2023/08/11 07:06:51;;;;;;;13.63;5.22;;;18.20;99.90;;;;;;6278428;22;20068;-82
2023/08/11 07:09:17;;;;;;;10.20;4.78;;;18.30;99.90;;;;;;6305613;22;20099;-81
2023/08/11 07:12:04;;;;;;;10.75;5.00;;;18.80;99.90;;;;;;6277529;22;20049;-81
2023/08/11 07:14:42;;;;;;;10.25;4.97;;;18.50;99.90;;;;;;6307536;22;20019;-82
2023/08/11 07:17:38;;;;;;;10.88;4.72;;;18.70;99.90;;;;;;6307844;22;20019;-81
2023/08/11 07:20:42;;;;;;;11.88;4.53;;;19.00;99.90;;;;;;6279433;22;20412;-82
2023/08/11 07:23:25;;;;;;;9.63;4.43;;;18.90;99.90;;;;;;6212862;23;20051;-82
2023/08/11 07:26:08;;;;;;;9.90;4.70;;;19.20;99.90;;;;;;6237572;22;20086;-82
2023/08/11 07:28:36;;;;;;;10.18;4.30;;;19.30;99.90;;;;;;6308665;22;20011;-83
2023/08/11 07:31:21;;;;;;;10.07;4.05;;;19.40;99.90;;;;;;6308519;22;20019;-83
2023/08/11 07:33:47;;;;;;;10.90;4.05;;;19.60;99.90;;;;;;6279662;22;20015;-82
2023/08/11 07:36:13;;;;;;;8.93;3.80;;;19.60;99.90;;;;;;6308306;22;20046;-82
2023/08/11 07:38:54;;;;;;;9.75;4.00;;;19.70;99.90;;;;;;6275819;22;20015;-85
2023/08/11 07:41:23;;;;;;;8.30;3.58;;;19.80;99.90;;;;;;6308646;22;20394;-86
2023/08/11 07:43:58;;;;;;;9.88;3.80;;;19.90;99.90;;;;;;6308902;22;20030;-86
2023/08/11 07:46:23;;;;;;;11.18;3.60;;;20.10;99.90;;;;;;6279840;22;20015;-82
2023/08/11 07:48:49;;;;;;;8.40;3.55;;;20.20;99.90;;;;;;6308278;22;20018;-83
2023/08/11 07:52:02;;;;;;;9.75;3.78;;;20.30;99.90;;;;;;6281374;22;20015;-82
2023/08/11 07:54:40;;;;;;;8.52;3.63;;;20.00;99.90;;;;;;6307085;22;20092;-83
2023/08/11 07:57:06;;;;;;;10.93;3.85;;;20.50;99.90;;;;;;6279719;22;20019;-82
2023/08/11 07:59:57;;;;;;;7.80;3.40;;;20.50;99.90;;;;;;6306291;22;20022;-82
2023/08/11 08:03:55;;;;;;;8.30;3.40;;;20.60;99.90;;;;;;6243703;23;20027;-83
2023/08/11 08:06:27;;;;;;;8.15;3.10;;;20.60;99.90;;;;;;6070242;23;20025;-83
2023/08/11 08:09:11;;;;;;;9.52;3.40;;;20.80;99.90;;;;;;6277626;22;20016;-84
2023/08/11 08:11:55;;;;;;;8.70;3.60;;;20.80;99.90;;;;;;6280276;22;20023;-83
2023/08/11 08:14:36;;;;;;;9.45;3.63;;;21.00;99.90;;;;;;6279892;22;20023;-82
2023/08/11 08:17:20;;;;;;;7.97;3.65;;;21.10;99.90;;;;;;6280097;22;20023;-82
2023/08/11 08:19:56;;;;;;;;;;;;;;;;;;;;;
2023/08/11 08:22:34;;;;;;;11.85;4.13;;;21.10;99.90;;;;;;6127430;23;20025;-81
2023/08/11 08:25:23;;;;;;;8.82;3.80;;;21.20;99.90;;;;;;6153425;23;20051;-82
2023/08/11 08:27:48;;;;;;;9.13;3.50;;;21.40;99.90;;;;;;6127582;23;20022;-83
2023/08/11 08:30:36;;;;;;;10.63;4.00;;;21.40;99.90;;;;;;6153544;23;20021;-83
2023/08/11 08:33:20;;;;;;;8.45;3.92;;;21.50;99.90;;;;;;6128724;23;20013;-83
2023/08/11 08:36:06;;;;;;;10.65;4.18;;;21.50;99.90;;;;;;6152290;23;20045;-83
2023/08/11 08:38:32;;;;;;;9.30;3.88;;;21.70;99.90;;;;;;6128853;23;20021;-84
2023/08/11 08:45:01;;;;;;;9.00;3.90;;;21.80;99.90;;;;;;6153483;23;20017;-84
2023/08/11 08:47:37;;;;;;;8.73;3.75;;;22.10;99.90;;;;;;6128856;23;20021;-84
2023/08/11 08:50:23;;;;;;;9.27;4.30;;;22.20;99.90;;;;;;6127652;23;20172;-84
2023/08/11 08:53:07;;;;;;;8.35;3.85;;;22.20;99.90;;;;;;6205747;22;20022;-85
2023/08/11 08:56:04;;;;;;;9.00;4.28;;;22.40;99.90;;;;;;6278622;22;20141;-85
2023/08/11 08:58:45;;;;;;;10.27;4.15;;;22.40;99.90;;;;;;6279956;22;20034;-84
2023/08/11 09:01:18;;;;;;;11.10;4.30;;;22.50;99.90;;;;;;6308166;22;20019;-84
2023/08/11 09:03:58;;;;;;;10.32;4.40;;;22.60;99.90;;;;;;6279292;22;20011;-85
2023/08/11 09:07:08;;;;;;;11.32;4.60;;;22.60;99.90;;;;;;6280335;22;20019;-85
2023/08/11 09:13:04;;;;;;;9.68;3.88;;;22.70;99.90;;;;;;6305528;22;20389;-83
2023/08/11 09:15:35;;;;;;;9.68;3.90;;;23.00;99.90;;;;;;6280344;22;20106;-83
2023/08/11 09:18:07;;;;;;;9.48;3.80;;;23.00;99.90;;;;;;6306995;22;20019;-83
2023/08/11 09:21:00;;;;;;;9.15;4.18;;;23.20;99.90;;;;;;6279571;22;20008;-83
2023/08/11 09:33:31;;;;;;;9.00;3.75;;;23.50;99.90;;;;;;6298577;22;20030;-81
2023/08/11 09:36:21;;;;;;;9.80;3.58;;;23.80;99.90;;;;;;6307230;22;20011;-84
2023/08/11 09:39:34;;;;;;;8.85;3.50;;;23.70;99.90;;;;;;6306407;22;20019;-85
2023/08/11 09:42:51;;;;;;;9.18;3.58;;;23.90;99.90;;;;;;6277891;22;20019;-86
2023/08/11 09:45:59;;;;;;;9.75;3.70;;;23.80;99.90;;;;;;6216174;22;20022;-85
2023/08/11 09:48:36;;;;;;;10.98;3.63;;;24.00;99.90;;;;;;6157021;23;20396;-84
2023/08/11 10:05:53;;;;;;;12.60;3.58;;;24.80;99.90;;;;;;6191279;23;20088;-87
2023/08/11 10:09:04;;;;;;;10.55;3.53;;;25.20;99.90;;;;;;6157051;23;20539;-87
2023/08/11 10:20:03;;;;;;;;;;;;;;;;;;;;;
2023/08/11 10:23:22;;;;;;;10.55;3.78;;;25.40;99.90;;;;;;6026318;23;20094;-85
2023/08/11 10:26:11;;;;;;;9.85;3.85;;;25.80;99.90;;;;;;6119767;23;20045;-85
2023/08/11 11:03:08;;;;;;;;;;;;;;;;;;;;;
2023/08/11 11:09:49;;;;;;;10.00;3.22;;;27.30;99.90;;;;;;6206849;23;20095;-84
2023/08/11 11:12:15;;;;;;;9.20;3.20;;;27.60;99.90;;;;;;6186337;23;20354;-84
2023/08/11 11:17:18;;;;;;;7.55;2.85;;;27.70;99.90;;;;;;6303851;22;20031;-87
2023/08/11 11:19:44;;;;;;;8.10;3.00;;;27.60;99.90;;;;;;6278649;22;20015;-86
2023/08/11 11:22:23;;;;;;;8.73;3.00;;;27.60;99.90;;;;;;6278809;22;20069;-86
2023/08/11 11:25:04;;;;;;;10.25;3.22;;;27.70;99.90;;;;;;6278033;22;20015;-85
2023/08/11 11:27:30;;;;;;;8.10;3.40;;;27.80;99.90;;;;;;6306562;22;20026;-86
2023/08/11 11:30:14;;;;;;;8.15;2.90;;;27.80;99.90;;;;;;6278119;22;20007;-85
2023/08/11 11:32:41;;;;;;;7.15;2.83;;;27.90;99.90;;;;;;6304595;22;20019;-84
2023/08/11 11:35:07;;;;;;;7.30;2.65;;;27.90;99.90;;;;;;6279477;22;20018;-84
2023/08/11 11:37:46;;;;;;;8.80;3.00;;;27.90;99.90;;;;;;6283877;22;20038;-86
2023/08/11 11:40:12;;;;;;;10.18;3.10;;;28.00;99.90;;;;;;6275431;22;20343;-86
2023/08/11 11:42:56;;;;;;;8.85;3.10;;;28.00;99.90;;;;;;6278895;22;20057;-85
2023/08/11 11:45:31;;;;;;;10.18;3.30;;;28.10;99.50;;;;;;6278555;22;20089;-86
2023/08/11 11:48:23;;;;;;;7.90;3.08;;;28.20;99.90;;;;;;6276047;22;20402;-86
2023/08/11 11:51:04;;;;;;;8.73;2.92;;;28.20;99.90;;;;;;6279889;22;20058;-86
2023/08/11 11:53:30;;;;;;;9.40;3.15;;;28.40;99.50;;;;;;6279656;22;20477;-85
2023/08/11 11:56:15;;;;;;;8.38;3.22;;;28.50;99.90;;;;;;6281157;22;20011;-86
2023/08/11 11:58:43;;;;;;;7.43;2.90;;;28.70;99.90;;;;;;6280038;22;20027;-86
2023/08/11 12:01:56;;;;;;;8.75;3.03;;;28.80;99.90;;;;;;6281773;22;20015;-86
2023/08/11 12:04:43;;;;;;;9.02;3.10;;;29.00;99.50;;;;;;6277215;22;20038;-86
2023/08/11 12:07:09;;;;;;;8.23;2.88;;;28.90;99.60;;;;;;6275807;22;20012;-85
2023/08/11 12:09:57;;;;;;;7.88;2.88;;;28.70;99.90;;;;;;6249740;22;20102;-85
2023/08/11 12:12:27;;;;;;;9.82;3.45;;;28.60;99.40;;;;;;6256441;22;20019;-85
2023/08/11 12:15:13;;;;;;;8.73;3.10;;;28.70;99.90;;;;;;6252787;22;20447;-85
2023/08/11 12:17:54;;;;;;;8.40;3.10;;;28.70;99.00;;;;;;6249557;22;20098;-85
2023/08/11 12:20:40;;;;;;;7.25;2.72;;;28.70;97.20;;;;;;6275500;22;20444;-85
2023/08/11 12:26:18;;;;;;;9.77;2.83;;;28.90;98.70;;;;;;6251194;22;20051;-87
2023/08/11 12:28:44;;;;;;;6.93;2.72;;;29.00;98.30;;;;;;6248634;22;20462;-87
2023/08/11 12:31:27;;;;;;;8.95;2.83;;;29.20;98.10;;;;;;6277536;22;20041;-85
2023/08/11 12:34:14;;;;;;;8.85;2.95;;;29.40;97.20;;;;;;6276223;22;20081;-85
2023/08/11 12:36:40;;;;;;;9.40;3.03;;;29.60;97.40;;;;;;6246586;22;20023;-85
2023/08/11 12:39:29;;;;;;;8.15;2.95;;;29.60;97.40;;;;;;6277425;22;20008;-85
2023/08/11 12:41:55;;;;;;;9.65;3.05;;;29.70;96.50;;;;;;6248591;22;20094;-88
2023/08/11 12:44:35;;;;;;;7.30;2.97;;;29.60;96.40;;;;;;6267229;22;20635;-87
2023/08/11 12:47:01;;;;;;;10.57;3.15;;;29.70;95.00;;;;;;6249279;22;20030;-85
2023/08/11 12:49:26;;;;;;;9.50;2.90;;;29.80;96.80;;;;;;6281479;22;20086;-85
2023/08/11 12:52:20;;;;;;;8.88;3.33;;;29.90;96.50;;;;;;6276784;22;20016;-87
2023/08/11 12:55:22;;;;;;;10.88;3.15;;;29.90;95.10;;;;;;6276785;22;20070;-86
2023/08/11 12:58:09;;;;;;;7.90;2.95;;;29.70;94.80;;;;;;6184115;22;20020;-85
2023/08/11 13:00:36;;;;;;;7.80;2.85;;;29.70;94.80;;;;;;6251198;22;20309;-86
2023/08/11 13:03:45;;;;;;;9.15;3.10;;;29.90;96.50;;;;;;6311003;22;20030;-85
2023/08/11 13:06:34;;;;;;;8.45;2.80;;;30.10;96.50;;;;;;6304806;22;20007;-84
2023/08/11 13:09:20;;;;;;;7.32;2.90;;;30.00;94.60;;;;;;6213157;23;20012;-84
2023/08/11 13:11:45;;;;;;;8.68;2.95;;;29.90;94.70;;;;;;6278317;22;20019;-84
2023/08/11 13:14:17;;;;;;;8.90;3.10;;;29.90;95.30;;;;;;6306833;22;20018;-84
2023/08/11 13:16:54;;;;;;;11.73;3.28;;;30.10;95.30;;;;;;6306171;22;20030;-84
2023/08/11 13:19:19;;;;;;;8.57;3.05;;;30.20;94.60;;;;;;6279828;22;20008;-84
2023/08/11 13:21:53;;;;;;;9.32;3.15;;;30.30;95.90;;;;;;6279867;22;20090;-84
2023/08/11 13:24:33;;;;;;;9.20;3.25;;;30.10;95.90;;;;;;6306923;22;20023;-84
2023/08/11 13:27:42;;;;;;;8.38;3.22;;;29.90;94.90;;;;;;6308512;22;20038;-86
2023/08/11 13:30:24;;;;;;;8.00;3.15;;;29.70;94.40;;;;;;6277233;22;20463;-84
2023/08/11 13:32:59;;;;;;;9.05;3.25;;;29.90;95.20;;;;;;6306473;22;20053;-84
2023/08/11 13:36:17;;;;;;;9.88;3.25;;;30.10;96.00;;;;;;6290600;22;20016;-84
2023/08/11 13:38:43;;;;;;;9.65;3.13;;;30.20;95.80;;;;;;6276684;22;20019;-85
2023/08/11 13:41:47;;;;;;;;;;;;;;;;;;;;;
2023/08/11 13:44:22;;;;;;;10.27;3.00;;;30.40;94.60;;;;;;6262289;22;20015;-82
2023/08/11 13:47:03;;;;;;;10.38;3.20;;;30.50;95.80;;;;;;6274867;22;20017;-84
2023/08/11 13:49:47;;;;;;;10.70;3.13;;;30.70;94.50;;;;;;6277233;22;20019;-83
2023/08/11 13:52:15;;;;;;;9.88;3.47;;;30.50;94.50;;;;;;6275596;22;20007;-82
2023/08/11 13:54:56;;;;;;;8.98;3.20;;;30.50;95.80;;;;;;6276626;22;20020;-84
2023/08/11 13:57:22;;;;;;;8.15;3.47;;;30.20;95.70;;;;;;6277104;22;20051;-83
2023/08/11 13:59:47;;;;;;;7.18;3.08;;;29.80;95.80;;;;;;6303534;22;20069;-83
2023/08/11 14:02:30;;;;;;;13.27;3.63;;;29.80;96.10;;;;;;6305362;22;20320;-82
2023/08/11 14:05:20;;;;;;;9.10;3.33;;;30.10;96.40;;;;;;6279316;22;20003;-82
2023/08/11 14:10:45;;;;;;;7.60;2.90;;;30.30;95.80;;;;;;6273644;22;20026;-83
2023/08/11 14:13:39;;;;;;;9.75;3.45;;;30.50;94.70;;;;;;6276875;22;20019;-82
2023/08/11 14:16:17;;;;;;;9.07;3.00;;;30.40;95.00;;;;;;6306221;22;20012;-82
2023/08/11 14:18:45;;;;;;;8.25;2.80;;;30.70;96.00;;;;;;6276949;22;20030;-82
2023/08/11 14:21:27;;;;;;;9.75;3.20;;;30.80;95.80;;;;;;6276427;22;20015;-82
2023/08/11 14:23:55;;;;;;;8.23;2.92;;;30.80;95.60;;;;;;6305425;22;20047;-81
2023/08/11 14:27:19;;;;;;;8.13;3.20;;;30.90;94.80;;;;;;6305412;22;20015;-81
2023/08/11 14:30:00;;;;;;;8.00;2.97;;;31.00;95.00;;;;;;6275234;22;20478;-81
2023/08/11 14:36:16;;;;;;;8.40;3.20;;;31.20;94.70;;;;;;6178465;23;20027;-81
2023/08/11 14:39:26;;;;;;;8.43;3.00;;;31.10;94.70;;;;;;6212953;22;20015;-80
2023/08/11 14:41:55;;;;;;;10.50;3.42;;;31.20;94.90;;;;;;6304815;22;20662;-82
2023/08/11 14:44:35;;;;;;;7.47;3.10;;;31.10;95.00;;;;;;6306630;22;20016;-83
2023/08/11 14:50:41;;;;;;;8.32;3.30;;;31.00;95.20;;;;;;6274066;22;20075;-82
2023/08/11 14:53:06;;;;;;;8.65;3.53;;;30.70;95.50;;;;;;6275880;22;20019;-82
2023/08/11 14:55:32;;;;;;;8.88;3.40;;;30.20;95.50;;;;;;6246871;22;20582;-81
2023/08/11 14:57:58;;;;;;;8.30;3.35;;;30.00;95.60;;;;;;6247674;22;20019;-81
2023/08/11 15:00:23;;;;;;;8.35;3.38;;;29.90;95.70;;;;;;6248572;22;20527;-81
2023/08/11 15:02:49;;;;;;;8.70;3.28;;;30.00;95.80;;;;;;6245611;22;20023;-81
2023/08/11 15:05:15;;;;;;;8.10;3.28;;;30.30;96.10;;;;;;6275271;22;20018;-82
2023/08/11 15:07:42;;;;;;;9.30;3.15;;;30.40;96.00;;;;;;6275780;22;20030;-82
2023/08/11 15:10:08;;;;;;;9.05;3.35;;;30.50;95.90;;;;;;6274787;22;20038;-83
2023/08/11 15:19:02;;;;;;;8.55;3.30;;;30.30;94.30;;;;;;6195850;22;20038;-83
2023/08/11 15:21:28;;;;;;;7.85;3.08;;;30.20;95.50;;;;;;6247767;22;20550;-83
2023/08/11 15:23:56;;;;;;;8.10;3.40;;;30.40;95.60;;;;;;6247305;22;20046;-82
2023/08/11 15:26:22;;;;;;;7.57;3.05;;;30.20;95.40;;;;;;6277229;22;20018;-82
2023/08/11 15:28:59;;;;;;;7.40;3.17;;;30.20;95.60;;;;;;6249626;22;20020;-82
2023/08/11 15:31:25;;;;;;;8.48;3.63;;;30.20;95.50;;;;;;6276579;22;20089;-82
2023/08/11 15:34:00;;;;;;;9.40;3.30;;;29.80;95.80;;;;;;6275165;22;20019;-83
2023/08/11 15:36:26;;;;;;;8.55;3.47;;;29.50;95.70;;;;;;6275036;22;20018;-83
2023/08/11 15:39:15;;;;;;;9.63;3.30;;;29.30;95.80;;;;;;6248805;22;20016;-83
2023/08/11 15:41:41;;;;;;;9.40;3.55;;;29.20;95.80;;;;;;6250060;22;20004;-82
2023/08/11 15:44:15;;;;;;;9.57;3.20;;;29.30;96.20;;;;;;6276562;22;20416;-83
2023/08/11 15:46:41;;;;;;;9.10;3.45;;;29.40;96.30;;;;;;6275416;22;20448;-83
2023/08/11 15:52:19;;;;;;;8.02;3.03;;;29.10;96.50;;;;;;6294527;22;20023;-83
2023/08/11 15:57:15;;;;;;;7.90;3.33;;;28.90;96.90;;;;;;6246806;23;20089;-83
2023/08/11 15:59:42;;;;;;;8.85;3.17;;;28.90;97.10;;;;;;6218882;23;20013;-84
2023/08/11 16:02:23;;;;;;;8.88;3.28;;;28.70;97.30;;;;;;6219763;23;20027;-86
2023/08/11 16:04:48;;;;;;;9.93;4.78;;;28.70;97.40;;;;;;6246142;23;20087;-85
2023/08/11 16:07:35;;;;;;;10.68;5.10;;;28.50;97.40;;;;;;6218994;23;20451;-85
2023/08/11 16:10:39;;;;;;;8.68;3.65;;;28.50;97.40;;;;;;6219245;23;20099;-84
2023/08/11 16:16:02;;;;;;;11.68;6.85;;;28.50;97.80;;;;;;6306985;22;20019;-84
2023/08/11 16:18:46;;;;;;;13.20;6.32;;;28.30;97.50;;;;;;6280505;22;20047;-84
2023/08/11 16:21:20;;;;;;;11.07;6.28;;;28.30;98.10;;;;;;6279699;22;20501;-83
2023/08/11 16:23:58;;;;;;;12.10;4.60;;;28.20;98.30;;;;;;6280500;22;20041;-84
2023/08/11 16:26:27;;;;;;;12.88;7.53;;;28.10;98.20;;;;;;6280347;22;20026;-84
2023/08/11 16:29:08;;;;;;;9.95;4.03;;;28.00;98.40;;;;;;6316262;22;20011;-84
2023/08/11 16:31:47;;;;;;;9.95;4.75;;;27.90;98.40;;;;;;6308317;22;20023;-84
2023/08/11 16:34:15;;;;;;;8.88;3.72;;;27.80;98.60;;;;;;6306804;22;20015;-84
2023/08/11 16:36:41;;;;;;;11.30;6.30;;;27.80;98.70;;;;;;6307660;22;20019;-84
2023/08/11 16:39:16;;;;;;;11.25;4.95;;;27.80;98.80;;;;;;6308043;22;20007;-84
2023/08/11 16:41:56;;;;;;;22.48;18.48;;;27.70;99.00;;;;;;6279570;22;20054;-84
2023/08/11 16:44:36;;;;;;;16.30;11.70;;;27.70;99.00;;;;;;6307826;22;20297;-84
2023/08/11 16:47:02;;;;;;;12.20;6.80;;;27.60;99.00;;;;;;6307998;22;20011;-85
2023/08/11 16:49:43;;;;;;;12.27;6.20;;;27.60;99.20;;;;;;6279182;22;20022;-85
2023/08/11 16:52:24;;;;;;;10.23;5.10;;;27.50;99.40;;;;;;6280885;22;20505;-85
2023/08/11 16:55:18;;;;;;;11.00;4.13;;;27.40;99.70;;;;;;6279501;22;20018;-85
2023/08/11 16:58:00;;;;;;;9.52;4.57;;;27.40;99.30;;;;;;6285366;22;20032;-85
2023/08/11 17:00:25;;;;;;;11.90;6.22;;;27.20;99.60;;;;;;6281064;22;20064;-86
2023/08/11 17:02:57;;;;;;;9.45;4.68;;;27.20;99.80;;;;;;6306355;22;20043;-84
2023/08/11 17:05:23;;;;;;;9.95;4.85;;;27.10;99.70;;;;;;6278742;22;20012;-85
2023/08/11 17:07:48;;;;;;;13.60;6.40;;;27.00;99.90;;;;;;6307023;22;20026;-85
2023/08/11 17:10:17;;;;;;;12.05;5.57;;;26.90;99.90;;;;;;6305602;22;20077;-85
2023/08/11 17:12:53;;;;;;;;;;;;;;;;;;;;;
2023/08/11 17:15:28;;;;;;;8.52;3.83;;;26.80;99.90;;;;;;6304249;22;20019;-85
2023/08/11 17:18:46;;;;;;;12.13;4.82;;;26.70;99.90;;;;;;6305433;22;20088;-86
2023/08/11 17:21:38;;;;;;;10.23;4.50;;;26.60;99.90;;;;;;6278795;22;20343;-86
2023/08/11 17:24:16;;;;;;;12.07;5.88;;;26.40;99.90;;;;;;6278866;22;20015;-86
2023/08/11 17:26:57;;;;;;;9.13;3.90;;;26.50;99.90;;;;;;6279372;22;20011;-86
2023/08/11 17:32:15;;;;;;;10.30;4.10;;;26.30;99.90;;;;;;6305385;22;20046;-85
2023/08/11 17:34:44;;;;;;;10.77;4.50;;;26.30;99.90;;;;;;6278826;22;20093;-86
2023/08/11 17:37:35;;;;;;;9.77;3.65;;;26.20;99.90;;;;;;6272392;22;20443;-86
2023/08/11 17:40:04;;;;;;;23.70;12.32;;;26.10;99.90;;;;;;6295991;22;20039;-86
2023/08/11 17:42:40;;;;;;;10.55;5.20;;;26.10;99.90;;;;;;6296508;22;20019;-85
2023/08/11 17:45:06;;;;;;;10.30;6.07;;;26.00;99.90;;;;;;6305825;22;20374;-86
2023/08/11 17:47:35;;;;;;;12.57;7.45;;;25.90;99.90;;;;;;6278579;22;20037;-86
2023/08/11 17:50:04;;;;;;;20.15;13.43;;;26.00;99.90;;;;;;6307301;22;20011;-86
2023/08/11 17:52:48;;;;;;;14.45;6.85;;;25.90;99.90;;;;;;6258141;22;20030;-85
2023/08/11 17:55:23;;;;;;;14.85;7.97;;;25.80;99.90;;;;;;6248192;22;20026;-84
2023/08/11 17:57:58;;;;;;;9.65;4.68;;;25.80;99.90;;;;;;6272720;22;20019;-84
2023/08/11 18:00:57;;;;;;;10.75;3.60;;;25.70;99.90;;;;;;6248122;22;20424;-85
2023/08/11 18:03:26;;;;;;;9.75;3.58;;;25.70;99.90;;;;;;6155589;23;20393;-84
2023/08/11 18:06:07;;;;;;;9.90;3.70;;;25.60;99.90;;;;;;6180311;23;20017;-84
2023/08/11 18:09:55;;;;;;;9.40;4.10;;;25.60;99.90;;;;;;6181470;23;20473;-84
2023/08/11 18:12:24;;;;;;;11.18;4.88;;;25.40;99.90;;;;;;6218158;22;20467;-84
2023/08/11 18:16:26;;;;;;;;;;;;;;;;;;;;;
2023/08/11 18:19:16;;;;;;;12.95;5.22;;;25.10;99.90;;;;;;6141584;23;20021;-84
2023/08/11 18:21:42;;;;;;;11.63;4.88;;;24.70;99.90;;;;;;6126276;23;20399;-84
2023/08/11 18:24:38;;;;;;;12.00;5.32;;;24.60;99.90;;;;;;6195314;22;20103;-84
2023/08/11 18:27:15;;;;;;;11.20;4.93;;;24.40;99.90;;;;;;6278333;22;20061;-84
2023/08/11 18:30:06;;;;;;;11.85;4.93;;;24.30;99.90;;;;;;6278043;22;20451;-84
2023/08/11 18:33:19;;;;;;;12.65;4.82;;;24.20;99.90;;;;;;6278072;22;20102;-84
2023/08/11 18:36:02;;;;;;;12.50;4.95;;;24.60;99.90;;;;;;6278171;22;20338;-84
2023/08/11 18:38:37;;;;;;;12.20;4.82;;;24.00;99.90;;;;;;6307474;22;20051;-86
2023/08/11 18:41:14;;;;;;;11.20;5.00;;;24.00;99.90;;;;;;6305680;22;20334;-84
2023/08/11 18:43:41;;;;;;;13.93;5.40;;;23.90;99.90;;;;;;6306117;22;20447;-82
2023/08/11 18:46:18;;;;;;;11.98;4.72;;;23.80;99.90;;;;;;6278637;22;20011;-81
2023/08/11 18:49:06;;;;;;;11.65;4.90;;;23.70;99.90;;;;;;6277361;22;20077;-83
2023/08/11 18:55:36;;;;;;;13.00;5.32;;;23.60;99.90;;;;;;6171067;23;20025;-82
2023/08/11 18:58:03;;;;;;;10.48;4.70;;;23.50;99.90;;;;;;6157290;23;20017;-82
2023/08/11 19:00:28;;;;;;;12.93;5.72;;;23.40;99.90;;;;;;6160085;23;20160;-82
2023/08/11 19:02:57;;;;;;;12.30;5.07;;;23.40;99.90;;;;;;6158788;23;20326;-83
2023/08/11 19:08:37;;;;;;;13.68;4.97;;;23.60;99.90;;;;;;6169215;23;20021;-83
2023/08/11 19:11:16;;;;;;;14.13;5.18;;;23.30;99.90;;;;;;6187438;23;20021;-83
2023/08/11 19:13:56;;;;;;;13.20;5.05;;;23.20;99.90;;;;;;6263063;22;20016;-82
2023/08/11 19:16:43;;;;;;;12.70;5.07;;;23.20;99.90;;;;;;6281676;22;20016;-82
2023/08/11 19:22:19;;;;;;;14.40;4.65;;;23.10;99.90;;;;;;6157567;22;20028;-85
2023/08/11 19:26:06;;;;;;;13.70;5.10;;;23.10;99.90;;;;;;6254434;22;20060;-84
2023/08/11 19:29:15;;;;;;;13.40;4.80;;;23.10;99.90;;;;;;6251536;22;20439;-86
2023/08/11 19:31:41;;;;;;;13.02;4.97;;;23.00;99.90;;;;;;6295484;22;20023;-86
2023/08/11 19:34:16;;;;;;;11.63;4.70;;;23.10;99.90;;;;;;6253556;22;20028;-86
2023/08/11 19:37:17;;;;;;;12.65;4.85;;;22.90;99.90;;;;;;6250074;22;20018;-87
2023/08/11 19:42:35;;;;;;;12.75;4.70;;;22.80;99.90;;;;;;6308273;22;20015;-85
2023/08/11 19:45:34;;;;;;;12.43;5.10;;;22.70;99.90;;;;;;6281888;22;20041;31
2023/08/11 19:52:04;;;;;;;11.55;5.03;;;22.60;99.90;;;;;;6265245;22;20068;-85
2023/08/11 19:54:36;;;;;;;12.32;4.95;;;22.50;99.90;;;;;;6281516;22;20023;-86
2023/08/11 20:06:16;;;;;;;13.05;4.90;;;22.20;99.90;;;;;;6263926;22;20443;-86
2023/08/11 20:11:45;;;;;;;11.25;4.30;;;22.20;99.90;;;;;;6302911;22;20023;-85
2023/08/11 20:16:55;;;;;;;12.27;4.47;;;22.10;99.90;;;;;;6268855;22;20031;-85
2023/08/11 20:19:47;;;;;;;;;;;;;;;;;;;;;